createdAt,value
2022-08-26T00:00:53.752Z,14.80
2022-08-26T00:03:23.833Z,12.38
2022-08-26T00:05:59.879Z,13.63
2022-08-26T00:08:27.963Z,8.63
2022-08-26T00:10:56.020Z,14.20
2022-08-26T00:13:28.715Z,21.50
2022-08-26T00:15:57.398Z,14.82
2022-08-26T00:18:25.946Z,10.68
2022-08-26T00:20:55.313Z,15.20
2022-08-26T00:24:26.605Z,12.43
2022-08-26T00:26:52.405Z,10.60
2022-08-26T00:29:21.353Z,16.42
2022-08-26T00:31:50.708Z,19.30
2022-08-26T00:34:19.585Z,10.82
2022-08-26T00:36:49.341Z,11.20
2022-08-26T00:39:21.147Z,13.63
2022-08-26T00:41:50.214Z,16.02
2022-08-26T00:44:18.499Z,16.92
2022-08-26T00:46:53.990Z,13.77
2022-08-26T00:49:42.952Z,13.90
2022-08-26T00:52:17.006Z,16.92
2022-08-26T00:55:38.933Z,11.77
2022-08-26T00:58:08.816Z,15.27
2022-08-26T01:00:36.881Z,19.75
2022-08-26T01:03:05.500Z,21.42
2022-08-26T01:05:35.867Z,16.73
2022-08-26T01:08:04.395Z,11.80
2022-08-26T01:10:32.582Z,19.27
2022-08-26T01:13:10.437Z,12.45
2022-08-26T01:15:49.441Z,12.55
2022-08-26T01:18:18.996Z,20.73
2022-08-26T01:21:08.131Z,18.95
2022-08-26T01:23:42.987Z,13.65
2022-08-26T01:26:27.389Z,13.00
2022-08-26T01:28:59.020Z,20.33
2022-08-26T01:36:53.608Z,12.63
2022-08-26T01:39:22.019Z,10.13
2022-08-26T01:42:03.024Z,11.02
2022-08-26T01:44:38.885Z,11.52
2022-08-26T01:47:09.745Z,16.58
2022-08-26T01:49:38.479Z,15.02
2022-08-26T01:52:08.816Z,11.85
2022-08-26T01:54:39.244Z,16.17
2022-08-26T01:57:08.521Z,12.57
2022-08-26T01:59:36.798Z,15.77
2022-08-26T02:02:04.943Z,9.70
2022-08-26T02:04:48.176Z,14.75
2022-08-26T02:07:21.543Z,14.93
2022-08-26T02:12:31.842Z,14.93
2022-08-26T02:15:05.830Z,17.65
2022-08-26T02:17:44.778Z,14.55
2022-08-26T02:20:18.501Z,11.38
2022-08-26T02:22:48.035Z,14.55
2022-08-26T02:25:42.012Z,12.95
2022-08-26T02:28:12.777Z,15.38
2022-08-26T02:30:41.782Z,15.38
2022-08-26T02:33:10.726Z,16.00
2022-08-26T02:35:40.540Z,10.68
2022-08-26T02:38:11.235Z,14.30
2022-08-26T02:40:42.354Z,13.35
2022-08-26T02:43:12.558Z,9.77
2022-08-26T02:45:41.859Z,13.98
2022-08-26T02:48:17.209Z,15.07
2022-08-26T02:50:48.683Z,14.65
2022-08-26T02:53:23.205Z,15.80
2022-08-26T02:55:53.664Z,12.43
2022-08-26T02:58:21.685Z,18.00
2022-08-26T03:00:53.480Z,10.80
2022-08-26T03:03:23.668Z,14.48
2022-08-26T03:05:55.251Z,12.20
2022-08-26T03:08:23.569Z,11.18
2022-08-26T03:10:51.889Z,15.07
2022-08-26T03:13:19.877Z,12.77
2022-08-26T03:15:48.087Z,9.60
2022-08-26T03:18:16.421Z,14.13
2022-08-26T03:20:44.904Z,13.48
2022-08-26T03:23:13.029Z,16.40
2022-08-26T03:25:41.350Z,9.48
2022-08-26T03:28:09.555Z,11.20
2022-08-26T03:30:44.824Z,12.05
2022-08-26T03:33:15.325Z,10.65
2022-08-26T03:35:47.985Z,12.15
2022-08-26T03:38:22.544Z,15.68
2022-08-26T03:43:21.612Z,17.50
2022-08-26T03:45:51.277Z,11.55
2022-08-26T03:48:19.543Z,15.85
2022-08-26T03:50:47.614Z,17.55
2022-08-26T03:53:17.269Z,14.45
2022-08-26T03:55:51.913Z,12.20
2022-08-26T03:58:21.506Z,13.75
2022-08-26T04:00:55.724Z,12.68
2022-08-26T04:03:44.703Z,11.27
2022-08-26T04:06:14.669Z,12.98
2022-08-26T04:08:54.963Z,13.93
2022-08-26T04:11:32.149Z,12.65
2022-08-26T04:14:09.800Z,11.27
2022-08-26T04:16:39.016Z,10.57
2022-08-26T04:19:07.406Z,14.82
2022-08-26T04:21:36.082Z,11.18
2022-08-26T04:24:12.202Z,10.48
2022-08-26T04:26:42.744Z,10.48
2022-08-26T04:29:24.135Z,11.63
2022-08-26T04:31:57.892Z,12.07
2022-08-26T04:34:28.984Z,9.07
2022-08-26T04:36:58.642Z,15.98
2022-08-26T04:39:28.137Z,10.60
2022-08-26T04:41:57.650Z,14.57
2022-08-26T04:44:29.877Z,11.30
2022-08-26T04:46:58.831Z,11.63
2022-08-26T04:49:27.715Z,11.77
2022-08-26T04:51:56.286Z,12.63
2022-08-26T04:54:26.244Z,12.07
2022-08-26T04:56:54.396Z,17.17
2022-08-26T04:59:23.214Z,15.30
2022-08-26T05:01:57.478Z,13.70
2022-08-26T05:04:25.936Z,16.90
2022-08-26T05:06:59.271Z,12.13
2022-08-26T05:09:30.941Z,16.13
2022-08-26T05:11:59.110Z,11.95
2022-08-26T05:14:27.345Z,15.98
2022-08-26T05:16:56.389Z,15.75
2022-08-26T05:19:24.895Z,22.88
2022-08-26T05:21:56.197Z,15.88
2022-08-26T05:24:24.686Z,23.25
2022-08-26T05:26:53.200Z,27.65
2022-08-26T05:29:21.592Z,21.35
2022-08-26T05:31:52.903Z,16.17
2022-08-26T05:34:24.075Z,16.52
2022-08-26T05:36:58.733Z,16.25
2022-08-26T05:39:26.976Z,20.70
2022-08-26T05:41:55.047Z,23.33
2022-08-26T05:44:23.321Z,17.75
2022-08-26T05:46:51.950Z,18.13
2022-08-26T05:49:20.485Z,15.90
2022-08-26T05:51:50.815Z,16.80
2022-08-26T05:54:22.041Z,11.95
2022-08-26T05:56:52.497Z,18.50
2022-08-26T05:59:21.398Z,10.70
2022-08-26T06:01:55.251Z,15.82
2022-08-26T06:04:27.430Z,17.23
2022-08-26T06:07:00.091Z,20.30
2022-08-26T06:09:28.456Z,10.85
2022-08-26T06:11:58.983Z,14.23
2022-08-26T06:14:27.244Z,15.80
2022-08-26T06:16:55.545Z,9.35
2022-08-26T06:19:23.816Z,18.55
2022-08-26T06:21:54.305Z,10.45
2022-08-26T06:24:42.010Z,13.95
2022-08-26T06:27:15.193Z,16.15
2022-08-26T06:29:43.581Z,13.73
2022-08-26T06:32:11.781Z,9.95
2022-08-26T06:34:43.107Z,15.25
2022-08-26T06:37:11.266Z,12.00
2022-08-26T06:39:42.231Z,11.27
2022-08-26T06:42:11.988Z,11.35
2022-08-26T06:44:44.881Z,10.48
2022-08-26T06:47:13.457Z,17.58
2022-08-26T06:49:41.867Z,14.82
2022-08-26T06:52:12.508Z,11.00
2022-08-26T06:54:44.332Z,11.20
2022-08-26T06:57:13.203Z,15.10
2022-08-26T06:59:42.730Z,20.03
2022-08-26T07:02:13.522Z,14.48
2022-08-26T07:04:43.125Z,9.25
2022-08-26T07:07:16.274Z,10.93
2022-08-26T07:09:44.420Z,13.52
2022-08-26T07:12:12.549Z,8.45
2022-08-26T07:14:41.529Z,11.02
2022-08-26T07:17:16.547Z,12.65
2022-08-26T07:19:46.164Z,9.15
2022-08-26T07:22:15.180Z,10.57
2022-08-26T07:24:44.834Z,8.55
2022-08-26T07:27:17.771Z,14.77
2022-08-26T07:29:46.837Z,11.60
2022-08-26T07:32:19.473Z,13.60
2022-08-26T07:34:49.365Z,12.52
2022-08-26T07:37:18.427Z,11.77
2022-08-26T07:39:48.654Z,8.23
2022-08-26T07:42:19.924Z,11.82
2022-08-26T07:44:48.293Z,8.63
2022-08-26T07:47:25.062Z,12.20
2022-08-26T07:49:57.709Z,10.65
2022-08-26T07:52:29.852Z,12.93
2022-08-26T07:55:01.039Z,8.73
2022-08-26T07:57:30.579Z,14.98
2022-08-26T07:59:59.825Z,10.80
2022-08-26T08:02:30.020Z,11.50
2022-08-26T08:04:59.750Z,11.55
2022-08-26T08:07:44.397Z,8.45
2022-08-26T08:10:21.436Z,10.48
2022-08-26T08:12:53.917Z,10.50
2022-08-26T08:15:26.843Z,8.93
2022-08-26T08:17:58.849Z,15.70
2022-08-26T08:20:30.184Z,8.38
2022-08-26T08:22:59.113Z,7.43
2022-08-26T08:25:27.833Z,7.90
2022-08-26T08:27:55.901Z,10.25
2022-08-26T08:30:25.195Z,10.18
2022-08-26T08:32:54.192Z,11.85
2022-08-26T08:35:26.582Z,11.38
2022-08-26T08:37:55.616Z,17.50
2022-08-26T08:40:27.850Z,15.88
2022-08-26T08:43:04.091Z,10.02
2022-08-26T08:46:04.587Z,18.17
2022-08-26T08:48:39.177Z,8.35
2022-08-26T08:51:22.463Z,9.13
2022-08-26T08:53:55.044Z,10.80
2022-08-26T08:56:49.959Z,11.60
2022-08-26T08:59:25.430Z,12.60
2022-08-26T09:02:46.146Z,11.32
2022-08-26T09:05:34.302Z,7.43
2022-08-26T09:08:11.612Z,8.27
2022-08-26T09:10:58.160Z,14.95
2022-08-26T09:13:28.225Z,10.57
2022-08-26T09:16:25.556Z,10.38
2022-08-26T09:18:59.557Z,7.93
2022-08-26T09:21:28.204Z,12.13
2022-08-26T09:23:57.431Z,11.75
2022-08-26T09:26:39.943Z,12.30
2022-08-26T09:29:25.995Z,11.90
2022-08-26T09:32:20.231Z,11.65
2022-08-26T09:35:08.183Z,11.02
2022-08-26T09:37:42.123Z,13.45
2022-08-26T09:40:36.406Z,12.15
2022-08-26T09:43:09.470Z,9.00
2022-08-26T09:45:39.777Z,10.95
2022-08-26T09:48:09.304Z,8.60
2022-08-26T09:51:00.306Z,14.73
2022-08-26T09:53:37.695Z,10.75
2022-08-26T09:56:25.898Z,10.45
2022-08-26T09:58:57.623Z,11.20
2022-08-26T10:01:42.168Z,8.68
2022-08-26T10:04:23.439Z,5.97
2022-08-26T10:07:05.866Z,8.80
2022-08-26T10:09:43.194Z,6.78
2022-08-26T10:12:21.703Z,9.20
2022-08-26T10:14:59.980Z,9.32
2022-08-26T10:17:46.579Z,7.97
2022-08-26T10:20:24.138Z,5.78
2022-08-26T10:23:23.386Z,4.43
2022-08-26T10:26:32.783Z,5.75
2022-08-26T10:29:23.580Z,5.30
2022-08-26T10:32:03.622Z,9.70
2022-08-26T10:34:35.199Z,5.82
2022-08-26T10:37:20.567Z,5.78
2022-08-26T10:40:02.867Z,5.05
2022-08-26T10:43:19.250Z,8.30
2022-08-26T10:45:57.857Z,6.35
2022-08-26T10:49:09.310Z,8.18
2022-08-26T10:51:53.214Z,5.57
2022-08-26T10:55:05.338Z,8.90
2022-08-26T10:58:05.960Z,4.72
2022-08-26T11:01:10.445Z,7.63
2022-08-26T11:03:54.286Z,7.25
2022-08-26T11:06:30.589Z,5.25
2022-08-26T11:09:05.894Z,7.22
2022-08-26T11:11:40.876Z,5.32
2022-08-26T11:14:18.160Z,6.05
2022-08-26T11:17:00.238Z,7.00
2022-08-26T11:19:59.485Z,7.00
2022-08-26T11:22:41.501Z,6.35
2022-08-26T11:25:29.960Z,4.47
2022-08-26T11:28:01.762Z,7.45
2022-08-26T11:30:41.145Z,4.32
2022-08-26T11:33:09.639Z,8.90
2022-08-26T11:35:38.539Z,5.38
2022-08-26T11:38:19.946Z,6.43
2022-08-26T11:41:21.139Z,4.95
2022-08-26T11:43:52.533Z,7.80
2022-08-26T11:46:28.879Z,5.90
2022-08-26T11:49:07.694Z,6.07
2022-08-26T11:51:40.361Z,7.65
2022-08-26T11:54:18.342Z,8.07
2022-08-26T11:57:11.798Z,7.28
2022-08-26T11:59:42.559Z,8.80
2022-08-26T12:02:17.909Z,7.93
2022-08-26T12:04:50.913Z,8.00
2022-08-26T12:07:26.145Z,7.70
2022-08-26T12:10:02.254Z,5.32
2022-08-26T12:12:38.931Z,5.13
2022-08-26T12:15:20.263Z,8.35
2022-08-26T12:18:03.551Z,5.03
2022-08-26T12:20:49.098Z,7.40
2022-08-26T12:23:35.289Z,7.38
2022-08-26T12:26:31.749Z,5.55
2022-08-26T12:29:10.819Z,11.40
2022-08-26T12:31:50.157Z,7.68
2022-08-26T12:34:19.074Z,6.40
2022-08-26T12:36:55.307Z,9.98
2022-08-26T12:39:38.678Z,7.65
2022-08-26T12:42:39.727Z,10.65
2022-08-26T12:45:09.226Z,7.82
2022-08-26T12:47:44.419Z,8.02
2022-08-26T12:50:27.621Z,4.78
2022-08-26T12:53:25.411Z,6.95
2022-08-26T12:55:58.128Z,8.90
2022-08-26T12:58:38.825Z,6.22
2022-08-26T13:01:07.281Z,5.28
2022-08-26T13:03:35.545Z,5.95
2022-08-26T13:06:30.089Z,6.00
2022-08-26T13:09:09.304Z,9.52
2022-08-26T13:11:40.742Z,6.80
2022-08-26T13:14:23.752Z,4.15
2022-08-26T13:16:53.492Z,4.85
2022-08-26T13:19:25.768Z,6.65
2022-08-26T13:21:57.715Z,7.18
2022-08-26T13:24:44.268Z,7.38
2022-08-26T13:27:15.065Z,7.35
2022-08-26T13:29:43.155Z,5.13
2022-08-26T13:32:11.340Z,7.45
2022-08-26T13:34:40.211Z,9.60
2022-08-26T13:37:08.354Z,4.95
2022-08-26T13:39:36.940Z,3.92
2022-08-26T13:42:05.524Z,6.30
2022-08-26T13:44:33.755Z,7.45
2022-08-26T13:47:01.846Z,4.45
2022-08-26T13:49:30.138Z,7.68
2022-08-26T13:51:58.193Z,7.57
2022-08-26T13:54:26.286Z,10.43
2022-08-26T13:56:54.808Z,6.75
2022-08-26T13:59:22.836Z,8.68
2022-08-26T14:01:51.121Z,11.20
2022-08-26T14:04:20.772Z,4.20
2022-08-26T14:06:55.398Z,7.05
2022-08-26T14:09:24.153Z,13.35
2022-08-26T14:11:54.077Z,8.85
2022-08-26T14:14:23.745Z,6.68
2022-08-26T14:16:59.599Z,8.77
2022-08-26T14:19:31.655Z,7.60
2022-08-26T14:22:02.201Z,5.55
2022-08-26T14:24:30.493Z,6.10
2022-08-26T14:26:58.867Z,5.97
2022-08-26T14:29:27.680Z,4.82
2022-08-26T14:31:59.829Z,5.15
2022-08-26T14:34:28.470Z,9.43
2022-08-26T14:36:56.594Z,4.63
2022-08-26T14:39:25.490Z,13.32
2022-08-26T14:41:57.006Z,6.43
2022-08-26T14:44:32.967Z,5.90
2022-08-26T14:47:04.371Z,8.85
2022-08-26T14:49:32.717Z,6.82
2022-08-26T14:52:00.918Z,4.45
2022-08-26T14:54:29.873Z,6.97
2022-08-26T14:57:05.010Z,4.25
2022-08-26T14:59:41.054Z,7.22
2022-08-26T15:02:13.668Z,4.05
2022-08-26T15:04:50.790Z,3.95
2022-08-26T15:07:20.532Z,5.22
2022-08-26T15:09:48.839Z,6.68
2022-08-26T15:12:17.122Z,6.15
2022-08-26T15:14:45.416Z,4.63
2022-08-26T15:17:13.637Z,9.75
2022-08-26T15:19:41.837Z,7.25
2022-08-26T15:22:10.531Z,5.45
2022-08-26T15:24:41.583Z,5.60
2022-08-26T15:27:10.114Z,10.27
2022-08-26T15:29:42.038Z,11.05
2022-08-26T15:32:10.292Z,8.00
2022-08-26T15:34:39.166Z,6.15
2022-08-26T15:37:07.724Z,6.32
2022-08-26T15:39:35.987Z,6.50
2022-08-26T15:42:04.822Z,4.05
2022-08-26T15:44:34.351Z,4.88
2022-08-26T15:47:02.654Z,6.63
2022-08-26T15:49:32.387Z,9.63
2022-08-26T15:52:00.379Z,6.55
2022-08-26T15:54:28.535Z,5.72
2022-08-26T15:56:57.602Z,9.50
2022-08-26T15:59:26.871Z,5.43
2022-08-26T16:01:55.544Z,9.10
2022-08-26T16:04:23.987Z,6.85
2022-08-26T16:06:53.487Z,7.28
2022-08-26T16:09:27.392Z,8.95
2022-08-26T16:11:56.427Z,6.78
2022-08-26T16:14:25.404Z,7.78
2022-08-26T16:16:54.048Z,4.68
2022-08-26T16:19:22.380Z,9.68
2022-08-26T16:21:51.805Z,8.38
2022-08-26T16:24:28.454Z,6.13
2022-08-26T16:27:00.067Z,5.85
2022-08-26T16:29:28.965Z,8.10
2022-08-26T16:31:57.112Z,9.25
2022-08-26T16:34:25.196Z,11.77
2022-08-26T16:36:53.695Z,6.03
2022-08-26T16:39:22.850Z,9.55
2022-08-26T16:41:51.088Z,13.10
2022-08-26T16:44:19.593Z,6.95
2022-08-26T16:46:47.828Z,5.78
2022-08-26T16:49:16.078Z,10.52
2022-08-26T16:51:44.687Z,9.05
2022-08-26T16:54:13.196Z,13.15
2022-08-26T16:56:41.451Z,9.70
2022-08-26T16:59:11.887Z,6.65
2022-08-26T17:01:40.823Z,5.90
2022-08-26T17:04:11.082Z,11.77
2022-08-26T17:06:39.782Z,5.10
2022-08-26T17:09:08.423Z,5.97
2022-08-26T17:11:36.571Z,5.80
2022-08-26T17:14:06.416Z,6.72
2022-08-26T17:16:34.731Z,9.43
2022-08-26T17:19:04.638Z,6.25
2022-08-26T17:21:36.439Z,7.65
2022-08-26T17:24:06.874Z,8.75
2022-08-26T17:26:36.002Z,6.75
2022-08-26T17:29:07.569Z,10.15
2022-08-26T17:31:35.934Z,11.75
2022-08-26T17:34:04.802Z,7.78
2022-08-26T17:36:32.937Z,7.00
2022-08-26T17:39:01.762Z,14.77
2022-08-26T17:41:30.182Z,6.75
2022-08-26T17:43:58.626Z,6.40
2022-08-26T17:46:27.156Z,13.02
2022-08-26T17:48:55.430Z,9.05
2022-08-26T17:51:24.538Z,10.43
2022-08-26T17:53:53.616Z,13.85
2022-08-26T17:56:30.075Z,12.27
2022-08-26T17:59:02.868Z,11.93
2022-08-26T18:01:33.442Z,13.98
2022-08-26T18:04:03.902Z,8.95
2022-08-26T18:06:32.683Z,9.13
2022-08-26T18:09:02.125Z,9.80
2022-08-26T18:11:32.916Z,10.77
2022-08-26T18:14:01.123Z,13.23
2022-08-26T18:16:34.412Z,10.63
2022-08-26T18:19:02.702Z,14.02
2022-08-26T18:21:31.135Z,17.08
2022-08-26T18:23:59.855Z,14.82
2022-08-26T18:26:40.905Z,14.02
2022-08-26T18:29:09.362Z,12.93
2022-08-26T18:31:37.683Z,9.85
2022-08-26T18:34:05.792Z,13.48
2022-08-26T18:36:37.214Z,28.88
2022-08-26T18:41:44.359Z,17.30
2022-08-26T18:44:14.406Z,13.77
2022-08-26T18:46:43.243Z,13.82
2022-08-26T18:49:21.289Z,13.25
2022-08-26T18:51:51.261Z,12.05
2022-08-26T18:56:53.783Z,18.65
2022-08-26T18:59:30.280Z,22.10
2022-08-26T19:01:59.450Z,16.98
2022-08-26T19:04:28.039Z,10.50
2022-08-26T19:06:56.228Z,10.80
2022-08-26T19:09:27.275Z,12.68
2022-08-26T19:14:30.166Z,12.02
2022-08-26T19:16:58.544Z,16.88
2022-08-26T19:19:27.000Z,15.02
2022-08-26T19:21:55.698Z,11.27
2022-08-26T19:24:27.290Z,12.10
2022-08-26T19:27:01.247Z,13.38
2022-08-26T19:29:35.444Z,13.88
2022-08-26T19:32:04.713Z,12.23
2022-08-26T19:34:32.859Z,13.63
2022-08-26T19:37:01.072Z,15.55
2022-08-26T19:39:29.656Z,14.63
2022-08-26T19:42:00.586Z,16.58
2022-08-26T19:44:48.369Z,11.90
2022-08-26T19:47:16.792Z,13.63
2022-08-26T19:49:45.848Z,19.27
2022-08-26T19:52:15.125Z,18.25
2022-08-26T19:54:46.057Z,18.92
2022-08-26T19:57:14.428Z,13.82
2022-08-26T19:59:43.407Z,16.67
2022-08-26T20:02:12.262Z,30.50
2022-08-26T20:04:46.602Z,24.88
2022-08-26T20:07:18.587Z,19.27
2022-08-26T20:09:49.430Z,19.20
2022-08-26T20:12:18.833Z,23.17
2022-08-26T20:14:47.422Z,28.90
2022-08-26T20:17:17.366Z,24.88
2022-08-26T20:20:04.209Z,14.75
2022-08-26T20:22:33.981Z,22.65
2022-08-26T20:25:02.295Z,20.10
2022-08-26T20:27:37.718Z,16.35
2022-08-26T20:30:09.354Z,13.68
2022-08-26T20:32:39.957Z,21.10
2022-08-26T20:35:13.489Z,17.23
2022-08-26T20:37:42.494Z,19.38
2022-08-26T20:40:13.893Z,19.23
2022-08-26T20:42:42.710Z,16.40
2022-08-26T20:45:11.400Z,14.88
2022-08-26T20:47:40.077Z,17.73
2022-08-26T20:50:09.086Z,22.95
2022-08-26T20:52:37.222Z,19.55
2022-08-26T20:55:06.034Z,14.13
2022-08-26T20:57:34.163Z,15.85
2022-08-26T21:00:02.584Z,17.95
2022-08-26T21:02:30.968Z,13.55
2022-08-26T21:05:00.315Z,15.82
2022-08-26T21:07:30.412Z,16.98
2022-08-26T21:09:58.562Z,16.38
2022-08-26T21:12:27.729Z,18.23
2022-08-26T21:14:55.992Z,22.85
2022-08-26T21:17:24.075Z,23.77
2022-08-26T21:19:52.272Z,20.30
2022-08-26T21:22:21.264Z,25.25
2022-08-26T21:24:49.476Z,20.50
2022-08-26T21:27:21.321Z,21.17
2022-08-26T21:29:54.698Z,20.92
2022-08-26T21:32:23.145Z,26.70
2022-08-26T21:34:56.281Z,21.00
2022-08-26T21:37:25.844Z,15.73
2022-08-26T21:39:56.348Z,22.45
2022-08-26T21:42:26.896Z,22.70
2022-08-26T21:44:56.252Z,22.10
2022-08-26T21:47:25.117Z,18.27
2022-08-26T21:49:56.728Z,18.35
2022-08-26T21:54:59.052Z,18.95
2022-08-26T21:57:29.261Z,18.80
2022-08-26T21:59:57.756Z,16.23
2022-08-26T22:02:26.005Z,20.02
2022-08-26T22:04:54.225Z,16.35
2022-08-26T22:07:22.458Z,26.65
2022-08-26T22:09:50.823Z,19.70
2022-08-26T22:12:19.255Z,23.55
2022-08-26T22:14:48.050Z,21.10
2022-08-26T22:17:17.166Z,25.10
2022-08-26T22:19:46.365Z,21.55
2022-08-26T22:22:15.460Z,22.25
2022-08-26T22:24:44.002Z,18.67
2022-08-26T22:27:13.366Z,20.33
2022-08-26T22:29:41.702Z,16.73
2022-08-26T22:32:10.226Z,23.92
2022-08-26T22:34:38.781Z,19.48
2022-08-26T22:37:07.009Z,17.70
2022-08-26T22:39:35.285Z,18.45
2022-08-26T22:42:05.569Z,19.27
2022-08-26T22:44:36.660Z,23.45
2022-08-26T22:47:04.852Z,16.23
2022-08-26T22:49:33.067Z,22.75
2022-08-26T22:52:01.272Z,19.23
2022-08-26T22:54:29.356Z,18.58
2022-08-26T22:56:57.615Z,23.08
2022-08-26T22:59:25.856Z,20.48
2022-08-26T23:01:53.944Z,22.13
2022-08-26T23:04:22.362Z,28.63
2022-08-26T23:06:51.829Z,24.92
2022-08-26T23:09:20.381Z,22.83
2022-08-26T23:11:50.584Z,19.00
2022-08-26T23:14:19.577Z,25.80
2022-08-26T23:16:48.067Z,23.63
2022-08-26T23:19:19.650Z,24.48
2022-08-26T23:24:17.652Z,26.52
2022-08-26T23:26:46.922Z,21.88
2022-08-26T23:29:17.328Z,23.90
2022-08-26T23:31:45.751Z,17.95
2022-08-26T23:34:32.830Z,27.50
2022-08-26T23:37:01.412Z,25.73
2022-08-26T23:39:32.804Z,19.63
2022-08-26T23:42:01.891Z,18.27
2022-08-26T23:44:31.156Z,20.92
2022-08-26T23:47:00.149Z,25.02
2022-08-26T23:49:29.096Z,16.67
2022-08-26T23:52:16.121Z,21.45
2022-08-26T23:54:44.882Z,18.90
2022-08-26T23:57:13.120Z,21.80
2022-08-26T23:59:41.777Z,17.88
